createdAt,value
2017-11-01T00:00:26.333Z,7.73
2017-11-01T00:02:54.003Z,8.53
2017-11-01T00:05:21.589Z,8.13
2017-11-01T00:07:49.906Z,7.37
2017-11-01T00:10:18.331Z,8.07
2017-11-01T00:12:46.694Z,8.00
2017-11-01T00:15:14.255Z,6.90
2017-11-01T00:17:41.908Z,8.60
2017-11-01T00:20:09.573Z,7.50
2017-11-01T00:22:37.742Z,8.50
2017-11-01T00:25:05.303Z,6.90
2017-11-01T00:27:32.859Z,8.13
2017-11-01T00:30:00.415Z,6.80
2017-11-01T00:32:27.955Z,8.00
2017-11-01T00:34:55.558Z,7.43
2017-11-01T00:37:23.875Z,7.10
2017-11-01T00:39:51.473Z,7.30
2017-11-01T00:42:19.139Z,8.83
2017-11-01T00:44:46.770Z,6.67
2017-11-01T00:47:14.331Z,7.00
2017-11-01T00:49:41.919Z,6.93
2017-11-01T00:52:10.091Z,6.10
2017-11-01T00:54:37.662Z,7.50
2017-11-01T00:57:05.280Z,6.60
2017-11-01T00:59:32.843Z,7.80
2017-11-01T01:02:00.383Z,7.77
2017-11-01T01:04:27.958Z,8.20
2017-11-01T01:06:55.547Z,9.83
2017-11-01T01:09:23.208Z,6.60
2017-11-01T01:11:50.756Z,6.33
2017-11-01T01:14:18.319Z,7.17
2017-11-01T01:16:45.999Z,8.07
2017-11-01T01:19:13.653Z,6.97
2017-11-01T01:21:41.324Z,7.90
2017-11-01T01:24:09.659Z,7.40
2017-11-01T01:26:37.247Z,6.60
2017-11-01T01:29:04.827Z,6.80
2017-11-01T01:31:33.190Z,7.63
2017-11-01T01:34:00.758Z,7.30
2017-11-01T01:36:29.094Z,7.40
2017-11-01T01:38:56.666Z,6.90
2017-11-01T01:41:24.242Z,7.43
2017-11-01T01:43:51.868Z,7.70
2017-11-01T01:46:19.426Z,6.60
2017-11-01T01:48:46.994Z,7.90
2017-11-01T01:51:14.558Z,6.60
2017-11-01T01:53:42.139Z,7.10
2017-11-01T01:56:09.702Z,7.00
2017-11-01T01:58:37.257Z,8.20
2017-11-01T02:01:04.824Z,8.33
2017-11-01T02:03:34.174Z,7.17
2017-11-01T02:06:01.737Z,7.20
2017-11-01T02:08:29.284Z,8.57
2017-11-01T02:10:57.164Z,7.50
2017-11-01T02:13:24.757Z,6.70
2017-11-01T02:15:53.861Z,7.70
2017-11-01T02:18:21.447Z,8.50
2017-11-01T02:20:49.019Z,7.73
2017-11-01T02:23:16.574Z,8.07
2017-11-01T02:25:44.818Z,8.93
2017-11-01T02:28:13.171Z,6.60
2017-11-01T02:30:40.726Z,7.73
2017-11-01T02:33:08.406Z,8.43
2017-11-01T02:35:36.186Z,7.57
2017-11-01T02:38:04.557Z,7.83
2017-11-01T02:40:32.903Z,7.17
2017-11-01T02:43:00.472Z,7.40
2017-11-01T02:45:28.147Z,9.23
2017-11-01T02:47:55.733Z,9.60
2017-11-01T02:50:23.295Z,7.40
2017-11-01T02:52:50.862Z,8.13
2017-11-01T02:55:18.439Z,7.70
2017-11-01T02:57:45.984Z,9.93
2017-11-01T03:00:13.803Z,9.70
2017-11-01T03:02:41.381Z,9.30
2017-11-01T03:05:09.739Z,9.50
2017-11-01T03:07:37.275Z,9.23
2017-11-01T03:10:04.845Z,8.30
2017-11-01T03:12:32.402Z,9.37
2017-11-01T03:14:59.966Z,10.20
2017-11-01T03:17:27.549Z,11.23
2017-11-01T03:19:55.983Z,8.70
2017-11-01T03:22:23.577Z,9.53
2017-11-01T03:24:51.156Z,10.30
2017-11-01T03:27:19.520Z,8.20
2017-11-01T03:29:47.077Z,9.43
2017-11-01T03:32:14.648Z,10.23
2017-11-01T03:34:42.973Z,10.17
2017-11-01T03:37:10.538Z,9.10
2017-11-01T03:39:38.234Z,10.10
2017-11-01T03:42:06.498Z,10.43
2017-11-01T03:44:34.163Z,9.67
2017-11-01T03:47:01.743Z,9.47
2017-11-01T03:49:30.074Z,9.10
2017-11-01T03:51:57.801Z,11.80
2017-11-01T03:54:25.387Z,10.40
2017-11-01T03:56:53.048Z,12.07
2017-11-01T03:59:20.610Z,8.90
2017-11-01T04:01:48.188Z,10.33
2017-11-01T04:04:16.321Z,9.47
2017-11-01T04:06:43.898Z,10.37
2017-11-01T04:09:11.466Z,10.53
2017-11-01T04:11:39.025Z,12.57
2017-11-01T04:14:06.607Z,9.97
2017-11-01T04:16:34.274Z,12.73
2017-11-01T04:19:07.558Z,12.03
2017-11-01T04:21:37.974Z,12.87
2017-11-01T04:24:05.541Z,11.37
2017-11-01T04:26:33.115Z,11.00
2017-11-01T04:29:00.685Z,12.03
2017-11-01T04:31:29.013Z,9.80
2017-11-01T04:33:57.341Z,13.60
2017-11-01T04:36:25.702Z,10.07
2017-11-01T04:38:53.261Z,12.70
2017-11-01T04:41:20.884Z,13.60
2017-11-01T04:43:48.497Z,9.70
2017-11-01T04:46:17.063Z,12.30
2017-11-01T04:48:44.722Z,11.33
2017-11-01T04:51:12.349Z,13.67
2017-11-01T04:53:40.925Z,14.17
2017-11-01T04:56:10.407Z,14.77
2017-11-01T04:58:37.993Z,14.80
2017-11-01T05:01:05.566Z,16.23
2017-11-01T05:03:33.134Z,17.80
2017-11-01T05:06:00.706Z,18.70
2017-11-01T05:08:34.003Z,17.57
2017-11-01T05:11:07.279Z,21.67
2017-11-01T05:13:50.508Z,28.27
2017-11-01T05:16:20.517Z,24.17
2017-11-01T05:18:48.081Z,25.07
2017-11-01T05:21:15.681Z,30.40
2017-11-01T05:23:44.034Z,25.17
2017-11-01T05:26:11.691Z,31.77
2017-11-01T05:28:39.267Z,32.67
2017-11-01T05:31:08.438Z,33.70
2017-11-01T05:33:36.019Z,39.43
2017-11-01T05:36:03.702Z,34.33
2017-11-01T05:38:32.020Z,39.90
2017-11-01T05:40:59.604Z,40.10
2017-11-01T05:43:27.182Z,38.73
2017-11-01T05:45:55.579Z,41.07
2017-11-01T05:48:23.915Z,34.70
2017-11-01T05:50:51.653Z,39.20
2017-11-01T05:53:19.259Z,37.50
2017-11-01T05:55:47.609Z,34.27
2017-11-01T05:58:15.166Z,38.60
2017-11-01T06:00:42.738Z,37.83
2017-11-01T06:03:11.119Z,36.90
2017-11-01T06:05:38.686Z,35.10
2017-11-01T06:08:06.347Z,36.57
2017-11-01T06:10:33.911Z,35.77
2017-11-01T06:13:02.239Z,38.57
2017-11-01T06:15:29.814Z,35.53
2017-11-01T06:17:58.214Z,40.80
2017-11-01T06:20:25.866Z,36.27
2017-11-01T06:22:53.441Z,35.47
2017-11-01T06:25:21.002Z,39.50
2017-11-01T06:27:48.582Z,38.47
2017-11-01T06:30:17.801Z,38.23
2017-11-01T06:32:45.361Z,33.23
2017-11-01T06:35:12.979Z,39.97
2017-11-01T06:37:43.911Z,36.67
2017-11-01T06:40:11.562Z,37.27
2017-11-01T06:42:39.126Z,38.87
2017-11-01T06:45:06.714Z,38.80
2017-11-01T06:47:35.194Z,38.93
2017-11-01T06:50:03.528Z,37.37
2017-11-01T06:52:31.154Z,35.30
2017-11-01T06:54:58.728Z,37.10
2017-11-01T06:57:26.704Z,39.43
2017-11-01T06:59:54.289Z,44.37
2017-11-01T07:02:21.856Z,38.53
2017-11-01T07:04:53.913Z,40.43
2017-11-01T07:07:21.488Z,35.10
2017-11-01T07:09:49.903Z,38.90
2017-11-01T07:12:17.477Z,40.43
2017-11-01T07:14:45.065Z,38.60
2017-11-01T07:17:12.639Z,42.93
2017-11-01T07:19:41.371Z,37.93
2017-11-01T07:22:08.973Z,38.73
2017-11-01T07:24:36.538Z,37.13
2017-11-01T07:27:06.421Z,40.20
2017-11-01T07:29:34.010Z,36.40
2017-11-01T07:32:01.579Z,36.40
2017-11-01T07:34:29.226Z,41.10
2017-11-01T07:36:56.853Z,37.30
2017-11-01T07:39:24.462Z,39.10
2017-11-01T07:41:53.126Z,38.80
2017-11-01T07:44:20.711Z,34.90
2017-11-01T07:46:49.071Z,38.20
2017-11-01T07:49:17.478Z,36.10
2017-11-01T07:51:46.734Z,38.83
2017-11-01T07:54:14.310Z,33.70
2017-11-01T07:56:41.869Z,36.97
2017-11-01T07:59:09.442Z,37.93
2017-11-01T08:01:37.777Z,36.97
2017-11-01T08:04:05.431Z,39.10
2017-11-01T08:06:33.024Z,38.37
2017-11-01T08:09:00.589Z,41.43
2017-11-01T08:11:28.162Z,41.17
2017-11-01T08:13:57.339Z,41.20
2017-11-01T08:16:25.821Z,41.33
2017-11-01T08:18:53.391Z,41.43
2017-11-01T08:21:21.756Z,37.47
2017-11-01T08:23:49.322Z,38.80
2017-11-01T08:26:16.902Z,42.27
2017-11-01T08:28:45.220Z,41.80
2017-11-01T08:31:12.764Z,40.90
2017-11-01T08:33:40.331Z,40.97
2017-11-01T08:36:07.895Z,38.67
2017-11-01T08:38:35.435Z,41.70
2017-11-01T08:41:03.010Z,41.30
2017-11-01T08:43:30.564Z,43.80
2017-11-01T08:45:58.118Z,45.73
2017-11-01T08:48:25.721Z,41.57
2017-11-01T08:50:53.268Z,47.07
2017-11-01T08:53:20.835Z,44.97
2017-11-01T08:55:48.414Z,45.93
2017-11-01T08:58:16.043Z,43.10
2017-11-01T09:00:43.592Z,43.90
2017-11-01T09:03:11.156Z,45.73
2017-11-01T09:05:38.727Z,44.13
2017-11-01T09:08:06.294Z,41.70
2017-11-01T09:10:33.870Z,46.47
2017-11-01T09:13:02.220Z,45.37
2017-11-01T09:15:29.803Z,44.70
2017-11-01T09:17:57.359Z,45.20
2017-11-01T09:20:24.915Z,43.23
2017-11-01T09:22:52.447Z,40.47
2017-11-01T09:25:20.012Z,44.17
2017-11-01T09:27:47.578Z,42.77
2017-11-01T09:30:15.133Z,44.37
2017-11-01T09:32:42.762Z,43.27
2017-11-01T09:35:10.318Z,44.33
2017-11-01T09:37:37.905Z,47.30
2017-11-01T09:40:05.595Z,40.60
2017-11-01T09:42:33.233Z,44.63
2017-11-01T09:45:00.820Z,43.40
2017-11-01T09:47:29.157Z,47.00
2017-11-01T09:49:56.744Z,46.43
2017-11-01T09:52:24.322Z,45.20
2017-11-01T09:54:52.682Z,43.13
2017-11-01T09:57:21.740Z,41.20
2017-11-01T09:59:49.310Z,41.87
2017-11-01T10:02:16.881Z,44.00
2017-11-01T10:04:44.439Z,41.10
2017-11-01T10:07:12.009Z,40.50
2017-11-01T10:09:39.582Z,38.37
2017-11-01T10:12:07.915Z,37.10
2017-11-01T10:14:35.495Z,35.67
2017-11-01T10:17:03.064Z,38.40
2017-11-01T10:19:30.644Z,38.23
2017-11-01T10:21:58.976Z,33.20
2017-11-01T10:24:26.551Z,32.50
2017-11-01T10:26:54.102Z,32.23
2017-11-01T10:29:21.678Z,33.57
2017-11-01T10:31:49.253Z,30.93
2017-11-01T10:34:17.573Z,29.40
2017-11-01T10:36:45.144Z,26.30
2017-11-01T10:39:12.696Z,27.13
2017-11-01T10:41:40.283Z,26.33
2017-11-01T10:44:07.849Z,25.87
2017-11-01T10:46:35.410Z,24.23
2017-11-01T10:49:02.950Z,26.47
2017-11-01T10:51:30.515Z,22.23
2017-11-01T10:53:58.063Z,23.40
2017-11-01T10:56:25.610Z,21.73
2017-11-01T10:58:53.170Z,21.20
2017-11-01T11:01:20.746Z,19.53
2017-11-01T11:03:48.296Z,20.43
2017-11-01T11:06:16.748Z,19.87
2017-11-01T11:08:44.323Z,18.90
2017-11-01T11:11:11.882Z,19.07
2017-11-01T11:13:39.451Z,18.90
2017-11-01T11:16:07.037Z,19.03
2017-11-01T11:18:34.627Z,19.77
2017-11-01T11:21:02.939Z,18.67
2017-11-01T11:23:30.482Z,19.30
2017-11-01T11:25:58.059Z,18.40
2017-11-01T11:28:25.615Z,18.93
2017-11-01T11:30:53.159Z,18.20
2017-11-01T11:33:20.716Z,19.03
2017-11-01T11:35:49.046Z,18.87
2017-11-01T11:38:17.438Z,22.70
2017-11-01T11:40:45.753Z,21.63
2017-11-01T11:43:13.353Z,21.57
2017-11-01T11:45:41.015Z,19.83
2017-11-01T11:48:08.683Z,20.87
2017-11-01T11:50:37.004Z,20.90
2017-11-01T11:53:04.568Z,21.30
2017-11-01T11:55:32.142Z,20.73
2017-11-01T11:57:59.743Z,19.37
2017-11-01T12:00:27.334Z,18.80
2017-11-01T12:02:54.935Z,19.80
2017-11-01T12:05:22.491Z,18.57
2017-11-01T12:07:50.062Z,19.30
2017-11-01T12:10:17.617Z,21.40
2017-11-01T12:12:45.186Z,22.90
2017-11-01T12:15:12.770Z,22.10
2017-11-01T12:17:41.092Z,21.60
2017-11-01T12:20:08.661Z,22.20
2017-11-01T12:22:36.235Z,23.50
2017-11-01T12:25:03.796Z,21.90
2017-11-01T12:27:31.367Z,20.50
2017-11-01T12:29:58.915Z,21.27
2017-11-01T12:32:26.478Z,20.07
2017-11-01T12:34:54.041Z,19.60
2017-11-01T12:37:21.593Z,20.13
2017-11-01T12:39:49.162Z,19.77
2017-11-01T12:42:17.578Z,19.07
2017-11-01T12:44:45.131Z,20.43
2017-11-01T12:47:13.460Z,18.53
2017-11-01T12:49:41.011Z,17.60
2017-11-01T12:52:08.591Z,17.70
2017-11-01T12:54:36.168Z,17.93
2017-11-01T12:57:04.517Z,18.23
2017-11-01T12:59:32.054Z,17.77
2017-11-01T13:01:59.621Z,16.70
2017-11-01T13:04:27.216Z,16.97
2017-11-01T13:06:54.791Z,15.83
2017-11-01T13:09:23.122Z,15.13
2017-11-01T13:11:50.697Z,14.90
2017-11-01T13:14:18.270Z,16.23
2017-11-01T13:16:45.826Z,16.73
2017-11-01T13:19:13.367Z,14.40
2017-11-01T13:21:40.955Z,12.67
2017-11-01T13:24:09.307Z,13.13
2017-11-01T13:26:36.893Z,14.37
2017-11-01T13:29:05.224Z,12.30
2017-11-01T13:31:32.800Z,12.27
2017-11-01T13:34:00.351Z,11.63
2017-11-01T13:36:27.900Z,11.07
2017-11-01T13:38:55.449Z,11.10
2017-11-01T13:41:23.035Z,11.33
2017-11-01T13:43:50.584Z,11.83
2017-11-01T13:46:18.148Z,11.67
2017-11-01T13:48:45.703Z,12.70
2017-11-01T13:51:13.252Z,12.67
2017-11-01T13:53:40.815Z,10.10
2017-11-01T13:56:09.145Z,10.63
2017-11-01T13:58:37.466Z,9.77
2017-11-01T14:01:05.038Z,9.30
2017-11-01T14:03:32.604Z,10.17
2017-11-01T14:06:00.163Z,9.07
2017-11-01T14:08:28.428Z,9.07
2017-11-01T14:10:55.994Z,9.43
2017-11-01T14:13:23.558Z,9.60
2017-11-01T14:15:51.138Z,8.67
2017-11-01T14:18:19.766Z,9.43
2017-11-01T14:20:47.896Z,9.43
2017-11-01T14:23:16.672Z,8.87
2017-11-01T14:25:45.342Z,8.07
2017-11-01T14:28:13.121Z,8.10
2017-11-01T14:30:41.038Z,7.30
2017-11-01T14:33:08.666Z,8.53
2017-11-01T14:35:36.982Z,6.40
2017-11-01T14:38:04.555Z,7.50
2017-11-01T14:40:32.098Z,6.80
2017-11-01T14:42:59.687Z,7.60
2017-11-01T14:45:27.254Z,7.53
2017-11-01T14:47:56.180Z,6.43
2017-11-01T14:50:24.511Z,7.43
2017-11-01T14:52:52.178Z,6.73
2017-11-01T14:55:19.755Z,7.03
2017-11-01T14:57:47.351Z,6.57
2017-11-01T15:00:15.337Z,8.13
2017-11-01T15:02:43.038Z,6.60
2017-11-01T15:05:10.607Z,6.73
2017-11-01T15:07:38.158Z,7.20
2017-11-01T15:10:05.810Z,5.67
2017-11-01T15:12:33.526Z,6.13
2017-11-01T15:15:01.140Z,7.20
2017-11-01T15:17:29.480Z,7.60
2017-11-01T15:19:57.063Z,7.50
2017-11-01T15:22:24.611Z,7.97
2017-11-01T15:24:52.156Z,7.83
2017-11-01T15:27:19.709Z,8.30
2017-11-01T15:29:47.299Z,8.80
2017-11-01T15:32:14.873Z,7.90
2017-11-01T15:34:42.442Z,10.13
2017-11-01T15:37:10.771Z,10.43
2017-11-01T15:39:38.355Z,12.07
2017-11-01T15:42:05.937Z,12.07
2017-11-01T15:44:34.266Z,12.17
2017-11-01T15:47:01.849Z,12.77
2017-11-01T15:49:29.394Z,12.00
2017-11-01T15:51:56.952Z,12.70
2017-11-01T15:54:24.528Z,12.53
2017-11-01T15:56:52.077Z,14.60
2017-11-01T15:59:19.673Z,14.37
2017-11-01T16:01:48.023Z,15.23
2017-11-01T16:04:15.603Z,18.60
2017-11-01T16:06:43.163Z,17.10
2017-11-01T16:09:10.747Z,19.90
2017-11-01T16:11:38.323Z,19.10
2017-11-01T16:14:05.895Z,18.30
2017-11-01T16:16:33.460Z,16.80
2017-11-01T16:19:01.003Z,18.70
2017-11-01T16:21:28.547Z,19.80
2017-11-01T16:23:56.110Z,19.90
2017-11-01T16:26:23.791Z,19.70
2017-11-01T16:28:51.335Z,19.60
2017-11-01T16:31:18.913Z,20.03
2017-11-01T16:33:46.555Z,18.23
2017-11-01T16:36:14.125Z,18.70
2017-11-01T16:38:41.711Z,19.73
2017-11-01T16:41:09.267Z,19.43
2017-11-01T16:43:36.840Z,20.10
2017-11-01T16:46:04.454Z,20.63
2017-11-01T16:48:32.024Z,17.87
2017-11-01T16:50:59.583Z,19.93
2017-11-01T16:53:27.167Z,19.33
2017-11-01T16:55:54.743Z,17.00
2017-11-01T16:58:23.089Z,18.20
2017-11-01T17:00:50.679Z,18.57
2017-11-01T17:03:18.251Z,16.37
2017-11-01T17:05:47.266Z,18.80
2017-11-01T17:08:14.870Z,16.27
2017-11-01T17:10:42.426Z,18.00
2017-11-01T17:13:10.001Z,16.17
2017-11-01T17:15:37.591Z,16.63
2017-11-01T17:18:05.905Z,17.20
2017-11-01T17:20:33.471Z,17.53
2017-11-01T17:23:01.031Z,16.50
2017-11-01T17:25:28.606Z,16.13
2017-11-01T17:27:56.179Z,15.73
2017-11-01T17:30:23.755Z,14.53
2017-11-01T17:32:52.061Z,16.10
2017-11-01T17:35:19.625Z,15.37
2017-11-01T17:37:47.204Z,14.70
2017-11-01T17:40:14.764Z,14.30
2017-11-01T17:42:42.331Z,15.03
2017-11-01T17:45:09.891Z,13.00
2017-11-01T17:47:37.452Z,13.77
2017-11-01T17:50:05.092Z,13.47
2017-11-01T17:52:32.688Z,12.73
2017-11-01T17:55:01.024Z,13.97
2017-11-01T17:57:28.594Z,13.30
2017-11-01T17:59:56.152Z,13.83
2017-11-01T18:02:23.716Z,12.93
2017-11-01T18:04:51.278Z,11.93
2017-11-01T18:07:18.868Z,12.50
2017-11-01T18:09:47.304Z,12.37
2017-11-01T18:12:14.869Z,11.80
2017-11-01T18:14:42.442Z,11.93
2017-11-01T18:17:09.992Z,11.67
2017-11-01T18:19:39.249Z,13.57
2017-11-01T18:22:07.576Z,12.80
2017-11-01T18:24:35.125Z,11.57
2017-11-01T18:27:02.697Z,13.10
2017-11-01T18:29:30.335Z,12.20
2017-11-01T18:31:57.880Z,11.80
2017-11-01T18:34:25.429Z,12.50
2017-11-01T18:36:53.005Z,12.57
2017-11-01T18:39:20.569Z,12.93
2017-11-01T18:41:48.122Z,12.23
2017-11-01T18:44:15.693Z,13.40
2017-11-01T18:46:43.230Z,12.03
2017-11-01T18:49:10.775Z,12.60
2017-11-01T18:51:39.087Z,13.60
2017-11-01T18:54:06.663Z,12.10
2017-11-01T18:56:34.224Z,12.87
2017-11-01T18:59:01.776Z,12.90
2017-11-01T19:01:29.343Z,11.90
2017-11-01T19:03:56.908Z,12.07
2017-11-01T19:06:24.471Z,12.50
2017-11-01T19:08:52.035Z,10.90
2017-11-01T19:11:19.584Z,11.53
2017-11-01T19:13:47.188Z,13.00
2017-11-01T19:16:14.746Z,12.27
2017-11-01T19:18:42.299Z,10.13
2017-11-01T19:21:10.647Z,10.67
2017-11-01T19:23:38.211Z,11.03
2017-11-01T19:26:05.755Z,12.23
2017-11-01T19:28:33.307Z,11.20
2017-11-01T19:31:00.850Z,10.47
2017-11-01T19:33:28.387Z,10.60
2017-11-01T19:35:55.998Z,10.20
2017-11-01T19:38:23.563Z,10.93
2017-11-01T19:40:51.144Z,10.73
2017-11-01T19:43:18.705Z,10.70
2017-11-01T19:45:47.047Z,10.97
2017-11-01T19:48:14.604Z,10.83
2017-11-01T19:50:42.188Z,11.27
2017-11-01T19:53:10.509Z,9.77
2017-11-01T19:55:38.070Z,10.50
2017-11-01T19:58:05.646Z,10.47
2017-11-01T20:00:33.219Z,10.30
2017-11-01T20:03:00.773Z,10.40
2017-11-01T20:05:28.328Z,10.37
2017-11-01T20:07:55.892Z,9.87
2017-11-01T20:10:23.455Z,9.70
2017-11-01T20:12:51.047Z,9.90
2017-11-01T20:15:19.359Z,10.50
2017-11-01T20:17:46.975Z,8.97
2017-11-01T20:20:14.566Z,8.93
2017-11-01T20:22:42.126Z,7.80
2017-11-01T20:25:09.671Z,7.77
2017-11-01T20:27:37.547Z,9.53
2017-11-01T20:30:05.108Z,8.97
2017-11-01T20:32:32.660Z,9.07
2017-11-01T20:35:00.215Z,8.33
2017-11-01T20:37:27.761Z,8.57
2017-11-01T20:39:56.076Z,7.90
2017-11-01T20:42:23.636Z,8.00
2017-11-01T20:44:51.191Z,7.57
2017-11-01T20:47:18.736Z,7.43
2017-11-01T20:49:46.305Z,8.43
2017-11-01T20:52:13.903Z,7.13
2017-11-01T20:54:41.439Z,7.80
2017-11-01T20:57:09.019Z,8.17
2017-11-01T20:59:36.576Z,8.27
2017-11-01T21:02:04.147Z,7.47
2017-11-01T21:04:31.710Z,8.60
2017-11-01T21:06:59.260Z,8.10
2017-11-01T21:09:26.851Z,8.90
2017-11-01T21:11:55.315Z,9.10
2017-11-01T21:14:23.648Z,8.10
2017-11-01T21:16:51.231Z,8.93
2017-11-01T21:19:18.780Z,7.47
2017-11-01T21:21:46.354Z,8.10
2017-11-01T21:24:13.934Z,10.07
2017-11-01T21:26:42.233Z,9.20
2017-11-01T21:29:09.772Z,9.30
2017-11-01T21:31:38.092Z,8.70
2017-11-01T21:34:05.648Z,8.77
2017-11-01T21:36:33.187Z,9.77
2017-11-01T21:39:00.772Z,8.20
2017-11-01T21:41:28.335Z,8.60
2017-11-01T21:43:55.919Z,8.73
2017-11-01T21:46:23.476Z,9.73
2017-11-01T21:48:51.038Z,10.63
2017-11-01T21:51:18.582Z,10.60
2017-11-01T21:53:46.159Z,9.27
2017-11-01T21:56:13.717Z,8.93
2017-11-01T21:58:41.286Z,10.00
2017-11-01T22:01:09.611Z,9.03
2017-11-01T22:03:37.239Z,10.53
2017-11-01T22:06:05.556Z,9.33
2017-11-01T22:08:33.129Z,8.70
2017-11-01T22:11:00.671Z,9.07
2017-11-01T22:13:28.222Z,10.60
2017-11-01T22:15:55.785Z,8.70
2017-11-01T22:18:23.324Z,9.20
2017-11-01T22:20:50.910Z,9.00
2017-11-01T22:23:18.484Z,9.90
2017-11-01T22:25:46.038Z,10.37
2017-11-01T22:28:13.588Z,9.63
2017-11-01T22:30:41.160Z,10.47
2017-11-01T22:33:08.801Z,10.13
2017-11-01T22:35:36.371Z,9.60
2017-11-01T22:38:03.954Z,10.10
2017-11-01T22:40:31.521Z,8.30
2017-11-01T22:42:59.867Z,9.47
2017-11-01T22:45:27.455Z,9.50
2017-11-01T22:47:55.112Z,10.10
2017-11-01T22:50:22.656Z,9.90
2017-11-01T22:52:50.212Z,9.33
2017-11-01T22:55:17.768Z,9.67
2017-11-01T22:57:45.326Z,10.50
2017-11-01T23:00:12.920Z,10.10
2017-11-01T23:02:41.274Z,11.80
2017-11-01T23:05:08.811Z,9.33
2017-11-01T23:07:36.365Z,10.37
2017-11-01T23:10:03.950Z,9.60
2017-11-01T23:12:31.568Z,9.10
2017-11-01T23:14:59.184Z,9.40
2017-11-01T23:17:26.748Z,9.77
2017-11-01T23:19:54.368Z,9.47
2017-11-01T23:22:21.923Z,9.40
2017-11-01T23:24:49.502Z,8.87
2017-11-01T23:27:17.063Z,10.10
2017-11-01T23:29:44.639Z,10.87
2017-11-01T23:32:12.225Z,8.40
2017-11-01T23:34:40.544Z,10.37
2017-11-01T23:37:08.094Z,9.97
2017-11-01T23:39:35.706Z,9.53
2017-11-01T23:42:04.051Z,9.97
2017-11-01T23:44:31.622Z,9.70
2017-11-01T23:46:59.296Z,10.93
2017-11-01T23:49:26.984Z,10.47
2017-11-01T23:51:55.320Z,10.90
2017-11-01T23:54:22.894Z,11.90
2017-11-01T23:56:50.462Z,9.80
2017-11-01T23:59:18.806Z,10.13
